sensor_id;sensor_type;location;lat;lon;timestamp;P1;durP1;ratioP1;P2;durP2;ratioP2
69783;SDS011;57054;51.978;4.498;2023-11-21T00:00:20;6.82;;;4.90;;
69783;SDS011;57054;51.978;4.498;2023-11-21T00:02:46;6.80;;;4.65;;
69783;SDS011;57054;51.978;4.498;2023-11-21T00:05:12;6.65;;;4.97;;
69783;SDS011;57054;51.978;4.498;2023-11-21T00:07:41;4.97;;;4.50;;
69783;SDS011;57054;51.978;4.498;2023-11-21T00:10:07;7.95;;;5.00;;
69783;SDS011;57054;51.978;4.498;2023-11-21T00:12:35;7.03;;;4.93;;
69783;SDS011;57054;51.978;4.498;2023-11-21T00:15:00;8.13;;;4.78;;
69783;SDS011;57054;51.978;4.498;2023-11-21T00:17:26;4.75;;;4.30;;
69783;SDS011;57054;51.978;4.498;2023-11-21T00:19:52;7.35;;;4.70;;
69783;SDS011;57054;51.978;4.498;2023-11-21T00:22:17;5.63;;;4.32;;
69783;SDS011;57054;51.978;4.498;2023-11-21T00:24:43;6.20;;;5.22;;
69783;SDS011;57054;51.978;4.498;2023-11-21T00:27:09;11.13;;;5.53;;
69783;SDS011;57054;51.978;4.498;2023-11-21T00:29:34;5.22;;;4.72;;
69783;SDS011;57054;51.978;4.498;2023-11-21T00:31:59;9.32;;;5.95;;
69783;SDS011;57054;51.978;4.498;2023-11-21T00:34:25;7.55;;;5.40;;
69783;SDS011;57054;51.978;4.498;2023-11-21T00:36:50;7.40;;;5.18;;
69783;SDS011;57054;51.978;4.498;2023-11-21T00:39:15;5.63;;;4.85;;
69783;SDS011;57054;51.978;4.498;2023-11-21T00:41:41;5.60;;;5.10;;
69783;SDS011;57054;51.978;4.498;2023-11-21T00:44:07;5.93;;;4.75;;
69783;SDS011;57054;51.978;4.498;2023-11-21T00:46:32;5.80;;;4.97;;
69783;SDS011;57054;51.978;4.498;2023-11-21T00:49:00;5.93;;;5.43;;
69783;SDS011;57054;51.978;4.498;2023-11-21T00:51:25;7.00;;;5.30;;
69783;SDS011;57054;51.978;4.498;2023-11-21T00:53:51;6.78;;;4.97;;
69783;SDS011;57054;51.978;4.498;2023-11-21T00:56:16;6.82;;;5.95;;
69783;SDS011;57054;51.978;4.498;2023-11-21T00:58:41;8.38;;;5.88;;
69783;SDS011;57054;51.978;4.498;2023-11-21T01:01:14;10.30;;;5.80;;
69783;SDS011;57054;51.978;4.498;2023-11-21T01:03:40;11.40;;;5.50;;
69783;SDS011;57054;51.978;4.498;2023-11-21T01:06:05;8.77;;;5.80;;
69783;SDS011;57054;51.978;4.498;2023-11-21T01:08:33;6.82;;;5.50;;
69783;SDS011;57054;51.978;4.498;2023-11-21T01:10:58;8.80;;;5.30;;
69783;SDS011;57054;51.978;4.498;2023-11-21T01:13:24;6.07;;;5.10;;
69783;SDS011;57054;51.978;4.498;2023-11-21T01:15:53;6.68;;;5.53;;
69783;SDS011;57054;51.978;4.498;2023-11-21T01:18:18;7.95;;;5.60;;
69783;SDS011;57054;51.978;4.498;2023-11-21T01:20:44;6.18;;;4.88;;
69783;SDS011;57054;51.978;4.498;2023-11-21T01:23:11;8.88;;;5.65;;
69783;SDS011;57054;51.978;4.498;2023-11-21T01:25:37;9.25;;;5.53;;
69783;SDS011;57054;51.978;4.498;2023-11-21T01:28:03;8.68;;;5.22;;
69783;SDS011;57054;51.978;4.498;2023-11-21T01:30:28;8.00;;;5.93;;
69783;SDS011;57054;51.978;4.498;2023-11-21T01:32:54;6.05;;;5.50;;
69783;SDS011;57054;51.978;4.498;2023-11-21T01:35:19;11.60;;;6.13;;
69783;SDS011;57054;51.978;4.498;2023-11-21T01:37:44;6.25;;;5.63;;
69783;SDS011;57054;51.978;4.498;2023-11-21T01:40:10;10.27;;;6.45;;
69783;SDS011;57054;51.978;4.498;2023-11-21T01:42:38;7.85;;;5.43;;
69783;SDS011;57054;51.978;4.498;2023-11-21T01:45:04;8.75;;;5.55;;
69783;SDS011;57054;51.978;4.498;2023-11-21T01:47:30;7.88;;;4.88;;
69783;SDS011;57054;51.978;4.498;2023-11-21T01:49:57;6.50;;;5.15;;
69783;SDS011;57054;51.978;4.498;2023-11-21T01:52:23;5.28;;;4.88;;
69783;SDS011;57054;51.978;4.498;2023-11-21T01:54:49;5.07;;;4.63;;
69783;SDS011;57054;51.978;4.498;2023-11-21T01:57:15;5.07;;;4.60;;
69783;SDS011;57054;51.978;4.498;2023-11-21T01:59:41;5.88;;;4.68;;
69783;SDS011;57054;51.978;4.498;2023-11-21T02:05:29;6.88;;;5.32;;
69783;SDS011;57054;51.978;4.498;2023-11-21T02:07:55;7.97;;;5.82;;
69783;SDS011;57054;51.978;4.498;2023-11-21T02:10:21;6.00;;;5.40;;
69783;SDS011;57054;51.978;4.498;2023-11-21T02:12:50;5.55;;;5.05;;
69783;SDS011;57054;51.978;4.498;2023-11-21T02:15:16;6.22;;;5.45;;
69783;SDS011;57054;51.978;4.498;2023-11-21T02:17:48;5.93;;;5.30;;
69783;SDS011;57054;51.978;4.498;2023-11-21T02:20:18;6.90;;;5.38;;
69783;SDS011;57054;51.978;4.498;2023-11-21T02:22:49;6.93;;;5.15;;
69783;SDS011;57054;51.978;4.498;2023-11-21T02:25:18;5.05;;;4.55;;
69783;SDS011;57054;51.978;4.498;2023-11-21T02:27:43;7.60;;;5.22;;
69783;SDS011;57054;51.978;4.498;2023-11-21T02:30:13;7.15;;;5.30;;
69783;SDS011;57054;51.978;4.498;2023-11-21T02:32:39;7.07;;;5.13;;
69783;SDS011;57054;51.978;4.498;2023-11-21T02:35:07;6.60;;;5.53;;
69783;SDS011;57054;51.978;4.498;2023-11-21T02:37:33;5.38;;;4.95;;
69783;SDS011;57054;51.978;4.498;2023-11-21T02:40:00;8.15;;;4.82;;
69783;SDS011;57054;51.978;4.498;2023-11-21T02:42:27;6.72;;;4.75;;
69783;SDS011;57054;51.978;4.498;2023-11-21T02:44:52;6.78;;;5.57;;
69783;SDS011;57054;51.978;4.498;2023-11-21T02:47:18;7.60;;;5.70;;
69783;SDS011;57054;51.978;4.498;2023-11-21T02:49:43;6.63;;;4.80;;
69783;SDS011;57054;51.978;4.498;2023-11-21T02:52:08;5.93;;;4.85;;
69783;SDS011;57054;51.978;4.498;2023-11-21T02:54:34;5.57;;;5.07;;
69783;SDS011;57054;51.978;4.498;2023-11-21T02:57:01;6.05;;;4.80;;
69783;SDS011;57054;51.978;4.498;2023-11-21T02:59:27;6.07;;;4.72;;
69783;SDS011;57054;51.978;4.498;2023-11-21T03:01:52;5.63;;;4.93;;
69783;SDS011;57054;51.978;4.498;2023-11-21T03:04:18;5.47;;;4.70;;
69783;SDS011;57054;51.978;4.498;2023-11-21T03:06:44;6.68;;;4.57;;
69783;SDS011;57054;51.978;4.498;2023-11-21T03:09:10;8.43;;;5.10;;
69783;SDS011;57054;51.978;4.498;2023-11-21T03:11:37;6.03;;;4.90;;
69783;SDS011;57054;51.978;4.498;2023-11-21T03:14:03;5.50;;;4.78;;
69783;SDS011;57054;51.978;4.498;2023-11-21T03:16:28;9.48;;;5.47;;
69783;SDS011;57054;51.978;4.498;2023-11-21T03:18:54;5.80;;;4.75;;
69783;SDS011;57054;51.978;4.498;2023-11-21T03:21:19;7.05;;;4.95;;
69783;SDS011;57054;51.978;4.498;2023-11-21T03:23:45;5.90;;;5.00;;
69783;SDS011;57054;51.978;4.498;2023-11-21T03:26:13;5.60;;;4.80;;
69783;SDS011;57054;51.978;4.498;2023-11-21T03:28:39;5.80;;;5.20;;
69783;SDS011;57054;51.978;4.498;2023-11-21T03:31:04;10.27;;;5.25;;
69783;SDS011;57054;51.978;4.498;2023-11-21T03:33:31;6.57;;;5.32;;
69783;SDS011;57054;51.978;4.498;2023-11-21T03:35:57;10.63;;;5.40;;
69783;SDS011;57054;51.978;4.498;2023-11-21T03:38:22;9.05;;;5.57;;
69783;SDS011;57054;51.978;4.498;2023-11-21T03:40:48;8.60;;;5.03;;
69783;SDS011;57054;51.978;4.498;2023-11-21T03:43:14;6.80;;;4.75;;
69783;SDS011;57054;51.978;4.498;2023-11-21T03:45:39;5.35;;;4.80;;
69783;SDS011;57054;51.978;4.498;2023-11-21T03:48:06;7.05;;;4.85;;
69783;SDS011;57054;51.978;4.498;2023-11-21T03:50:31;5.45;;;4.95;;
69783;SDS011;57054;51.978;4.498;2023-11-21T03:52:57;6.18;;;5.00;;
69783;SDS011;57054;51.978;4.498;2023-11-21T03:55:22;5.25;;;4.75;;
69783;SDS011;57054;51.978;4.498;2023-11-21T03:57:50;6.95;;;4.90;;
69783;SDS011;57054;51.978;4.498;2023-11-21T04:00:16;6.78;;;4.85;;
69783;SDS011;57054;51.978;4.498;2023-11-21T04:02:42;6.05;;;4.53;;
69783;SDS011;57054;51.978;4.498;2023-11-21T04:05:07;5.15;;;4.28;;
69783;SDS011;57054;51.978;4.498;2023-11-21T04:07:34;5.13;;;4.70;;
69783;SDS011;57054;51.978;4.498;2023-11-21T04:09:59;10.32;;;5.65;;
69783;SDS011;57054;51.978;4.498;2023-11-21T04:12:25;6.97;;;5.05;;
69783;SDS011;57054;51.978;4.498;2023-11-21T04:14:50;7.25;;;5.32;;
69783;SDS011;57054;51.978;4.498;2023-11-21T04:17:18;12.68;;;5.13;;
69783;SDS011;57054;51.978;4.498;2023-11-21T04:19:44;7.78;;;4.72;;
69783;SDS011;57054;51.978;4.498;2023-11-21T04:22:11;5.20;;;4.70;;
69783;SDS011;57054;51.978;4.498;2023-11-21T04:24:36;5.38;;;4.88;;
69783;SDS011;57054;51.978;4.498;2023-11-21T04:27:02;8.48;;;6.40;;
69783;SDS011;57054;51.978;4.498;2023-11-21T04:29:28;9.32;;;7.18;;
69783;SDS011;57054;51.978;4.498;2023-11-21T04:31:53;10.10;;;7.15;;
69783;SDS011;57054;51.978;4.498;2023-11-21T04:34:19;8.10;;;6.03;;
69783;SDS011;57054;51.978;4.498;2023-11-21T04:36:44;9.20;;;6.32;;
69783;SDS011;57054;51.978;4.498;2023-11-21T04:39:09;6.97;;;5.85;;
69783;SDS011;57054;51.978;4.498;2023-11-21T04:41:36;7.07;;;6.30;;
69783;SDS011;57054;51.978;4.498;2023-11-21T04:44:04;7.85;;;6.47;;
69783;SDS011;57054;51.978;4.498;2023-11-21T04:46:30;11.48;;;7.22;;
69783;SDS011;57054;51.978;4.498;2023-11-21T04:48:56;13.63;;;7.57;;
69783;SDS011;57054;51.978;4.498;2023-11-21T04:51:21;7.57;;;6.07;;
69783;SDS011;57054;51.978;4.498;2023-11-21T04:53:46;6.90;;;6.15;;
69783;SDS011;57054;51.978;4.498;2023-11-21T04:56:12;5.75;;;5.25;;
69783;SDS011;57054;51.978;4.498;2023-11-21T04:58:37;6.32;;;5.60;;
69783;SDS011;57054;51.978;4.498;2023-11-21T05:01:05;7.28;;;5.90;;
69783;SDS011;57054;51.978;4.498;2023-11-21T05:03:31;6.15;;;5.55;;
69783;SDS011;57054;51.978;4.498;2023-11-21T05:05:56;7.22;;;5.13;;
69783;SDS011;57054;51.978;4.498;2023-11-21T05:08:22;6.90;;;5.90;;
69783;SDS011;57054;51.978;4.498;2023-11-21T05:10:47;6.53;;;5.53;;
69783;SDS011;57054;51.978;4.498;2023-11-21T05:13:14;6.40;;;5.75;;
69783;SDS011;57054;51.978;4.498;2023-11-21T05:15:42;6.53;;;5.90;;
69783;SDS011;57054;51.978;4.498;2023-11-21T05:18:07;6.65;;;5.90;;
69783;SDS011;57054;51.978;4.498;2023-11-21T05:20:32;6.78;;;5.93;;
69783;SDS011;57054;51.978;4.498;2023-11-21T05:22:58;5.97;;;5.47;;
69783;SDS011;57054;51.978;4.498;2023-11-21T05:25:24;5.97;;;5.47;;
69783;SDS011;57054;51.978;4.498;2023-11-21T05:27:49;9.13;;;6.68;;
69783;SDS011;57054;51.978;4.498;2023-11-21T05:30:14;8.07;;;6.35;;
69783;SDS011;57054;51.978;4.498;2023-11-21T05:32:40;7.15;;;6.25;;
69783;SDS011;57054;51.978;4.498;2023-11-21T05:35:09;5.93;;;5.40;;
69783;SDS011;57054;51.978;4.498;2023-11-21T05:37:40;5.43;;;4.97;;
69783;SDS011;57054;51.978;4.498;2023-11-21T05:40:06;6.43;;;5.68;;
69783;SDS011;57054;51.978;4.498;2023-11-21T05:42:32;7.40;;;6.70;;
69783;SDS011;57054;51.978;4.498;2023-11-21T05:44:58;8.38;;;6.32;;
69783;SDS011;57054;51.978;4.498;2023-11-21T05:47:24;7.05;;;6.35;;
69783;SDS011;57054;51.978;4.498;2023-11-21T05:49:51;7.38;;;6.07;;
69783;SDS011;57054;51.978;4.498;2023-11-21T05:52:17;6.95;;;6.35;;
69783;SDS011;57054;51.978;4.498;2023-11-21T05:54:43;7.05;;;5.53;;
69783;SDS011;57054;51.978;4.498;2023-11-21T05:57:08;7.07;;;5.75;;
69783;SDS011;57054;51.978;4.498;2023-11-21T05:59:34;6.90;;;5.85;;
69783;SDS011;57054;51.978;4.498;2023-11-21T06:01:59;7.88;;;6.35;;
69783;SDS011;57054;51.978;4.498;2023-11-21T06:04:24;6.60;;;6.00;;
69783;SDS011;57054;51.978;4.498;2023-11-21T06:06:51;6.43;;;5.78;;
69783;SDS011;57054;51.978;4.498;2023-11-21T06:09:17;6.03;;;5.53;;
69783;SDS011;57054;51.978;4.498;2023-11-21T06:11:43;6.43;;;5.75;;
69783;SDS011;57054;51.978;4.498;2023-11-21T06:14:08;5.53;;;5.00;;
69783;SDS011;57054;51.978;4.498;2023-11-21T06:16:34;4.90;;;4.50;;
69783;SDS011;57054;51.978;4.498;2023-11-21T06:19:00;5.85;;;4.72;;
69783;SDS011;57054;51.978;4.498;2023-11-21T06:21:26;4.88;;;4.43;;
69783;SDS011;57054;51.978;4.498;2023-11-21T06:23:51;5.38;;;4.30;;
69783;SDS011;57054;51.978;4.498;2023-11-21T06:26:18;4.53;;;4.13;;
69783;SDS011;57054;51.978;4.498;2023-11-21T06:28:43;4.07;;;3.72;;
69783;SDS011;57054;51.978;4.498;2023-11-21T06:31:09;4.70;;;4.20;;
69783;SDS011;57054;51.978;4.498;2023-11-21T06:33:35;4.20;;;3.80;;
69783;SDS011;57054;51.978;4.498;2023-11-21T06:36:01;4.35;;;3.80;;
69783;SDS011;57054;51.978;4.498;2023-11-21T06:38:31;6.30;;;4.57;;
69783;SDS011;57054;51.978;4.498;2023-11-21T06:40:57;5.68;;;4.15;;
69783;SDS011;57054;51.978;4.498;2023-11-21T06:43:23;5.68;;;4.10;;
69783;SDS011;57054;51.978;4.498;2023-11-21T06:45:48;6.13;;;3.55;;
69783;SDS011;57054;51.978;4.498;2023-11-21T06:48:14;5.15;;;4.00;;
69783;SDS011;57054;51.978;4.498;2023-11-21T06:50:40;4.05;;;3.45;;
69783;SDS011;57054;51.978;4.498;2023-11-21T06:53:05;4.40;;;3.50;;
69783;SDS011;57054;51.978;4.498;2023-11-21T06:55:32;3.20;;;3.00;;
69783;SDS011;57054;51.978;4.498;2023-11-21T06:57:58;4.03;;;3.35;;
69783;SDS011;57054;51.978;4.498;2023-11-21T07:00:25;3.25;;;2.95;;
69783;SDS011;57054;51.978;4.498;2023-11-21T07:02:50;3.75;;;3.45;;
69783;SDS011;57054;51.978;4.498;2023-11-21T07:05:15;3.10;;;2.85;;
69783;SDS011;57054;51.978;4.498;2023-11-21T07:07:45;3.00;;;2.72;;
69783;SDS011;57054;51.978;4.498;2023-11-21T07:10:11;4.88;;;3.42;;
69783;SDS011;57054;51.978;4.498;2023-11-21T07:12:36;4.00;;;2.80;;
69783;SDS011;57054;51.978;4.498;2023-11-21T07:15:02;3.25;;;2.80;;
69783;SDS011;57054;51.978;4.498;2023-11-21T07:17:30;7.72;;;3.92;;
69783;SDS011;57054;51.978;4.498;2023-11-21T07:19:56;8.57;;;3.97;;
69783;SDS011;57054;51.978;4.498;2023-11-21T07:22:21;4.05;;;3.00;;
69783;SDS011;57054;51.978;4.498;2023-11-21T07:24:50;4.80;;;2.70;;
69783;SDS011;57054;51.978;4.498;2023-11-21T07:27:19;10.82;;;3.85;;
69783;SDS011;57054;51.978;4.498;2023-11-21T07:29:44;8.38;;;3.58;;
69783;SDS011;57054;51.978;4.498;2023-11-21T07:32:10;7.15;;;3.85;;
69783;SDS011;57054;51.978;4.498;2023-11-21T07:34:36;7.15;;;3.80;;
69783;SDS011;57054;51.978;4.498;2023-11-21T07:37:02;9.65;;;3.92;;
69783;SDS011;57054;51.978;4.498;2023-11-21T07:39:28;6.20;;;4.03;;
69783;SDS011;57054;51.978;4.498;2023-11-21T07:41:53;11.80;;;4.47;;
69783;SDS011;57054;51.978;4.498;2023-11-21T07:44:19;18.25;;;4.38;;
69783;SDS011;57054;51.978;4.498;2023-11-21T07:46:45;14.50;;;4.07;;
69783;SDS011;57054;51.978;4.498;2023-11-21T07:49:11;13.80;;;4.63;;
69783;SDS011;57054;51.978;4.498;2023-11-21T07:51:37;6.93;;;3.45;;
69783;SDS011;57054;51.978;4.498;2023-11-21T07:54:02;13.77;;;5.03;;
69783;SDS011;57054;51.978;4.498;2023-11-21T07:56:28;10.82;;;3.63;;
69783;SDS011;57054;51.978;4.498;2023-11-21T07:58:53;12.57;;;3.47;;
69783;SDS011;57054;51.978;4.498;2023-11-21T08:01:19;9.57;;;3.85;;
69783;SDS011;57054;51.978;4.498;2023-11-21T08:03:44;7.50;;;4.10;;
69783;SDS011;57054;51.978;4.498;2023-11-21T08:06:09;7.70;;;3.60;;
69783;SDS011;57054;51.978;4.498;2023-11-21T08:08:35;9.52;;;4.45;;
69783;SDS011;57054;51.978;4.498;2023-11-21T08:11:01;7.28;;;4.65;;
69783;SDS011;57054;51.978;4.498;2023-11-21T08:13:27;10.98;;;4.85;;
69783;SDS011;57054;51.978;4.498;2023-11-21T08:15:54;9.05;;;3.97;;
69783;SDS011;57054;51.978;4.498;2023-11-21T08:18:21;10.07;;;4.32;;
69783;SDS011;57054;51.978;4.498;2023-11-21T08:20:47;17.17;;;4.45;;
69783;SDS011;57054;51.978;4.498;2023-11-21T08:23:13;9.93;;;4.78;;
69783;SDS011;57054;51.978;4.498;2023-11-21T08:25:43;10.30;;;4.35;;
69783;SDS011;57054;51.978;4.498;2023-11-21T08:28:09;14.13;;;4.95;;
69783;SDS011;57054;51.978;4.498;2023-11-21T08:30:35;21.88;;;4.75;;
69783;SDS011;57054;51.978;4.498;2023-11-21T08:33:00;12.20;;;5.07;;
69783;SDS011;57054;51.978;4.498;2023-11-21T08:35:25;11.93;;;4.43;;
69783;SDS011;57054;51.978;4.498;2023-11-21T08:37:51;9.23;;;4.88;;
69783;SDS011;57054;51.978;4.498;2023-11-21T08:40:20;7.72;;;4.60;;
69783;SDS011;57054;51.978;4.498;2023-11-21T08:42:46;9.93;;;4.00;;
69783;SDS011;57054;51.978;4.498;2023-11-21T08:45:13;8.75;;;3.75;;
69783;SDS011;57054;51.978;4.498;2023-11-21T08:47:42;13.48;;;4.50;;
69783;SDS011;57054;51.978;4.498;2023-11-21T08:50:09;7.90;;;3.70;;
69783;SDS011;57054;51.978;4.498;2023-11-21T08:52:35;9.38;;;4.07;;
69783;SDS011;57054;51.978;4.498;2023-11-21T08:55:02;7.30;;;3.92;;
69783;SDS011;57054;51.978;4.498;2023-11-21T08:57:33;8.10;;;3.83;;
69783;SDS011;57054;51.978;4.498;2023-11-21T09:00:04;6.97;;;3.97;;
69783;SDS011;57054;51.978;4.498;2023-11-21T09:02:35;8.73;;;4.10;;
69783;SDS011;57054;51.978;4.498;2023-11-21T09:05:02;4.90;;;3.40;;
69783;SDS011;57054;51.978;4.498;2023-11-21T09:07:28;6.20;;;4.35;;
69783;SDS011;57054;51.978;4.498;2023-11-21T09:09:54;10.02;;;4.55;;
69783;SDS011;57054;51.978;4.498;2023-11-21T09:12:20;5.47;;;3.97;;
69783;SDS011;57054;51.978;4.498;2023-11-21T09:14:45;13.50;;;4.45;;
69783;SDS011;57054;51.978;4.498;2023-11-21T09:17:11;8.00;;;4.00;;
69783;SDS011;57054;51.978;4.498;2023-11-21T09:19:37;10.95;;;4.90;;
69783;SDS011;57054;51.978;4.498;2023-11-21T09:22:03;6.07;;;4.60;;
69783;SDS011;57054;51.978;4.498;2023-11-21T09:24:30;8.88;;;4.72;;
69783;SDS011;57054;51.978;4.498;2023-11-21T09:26:59;4.63;;;3.90;;
69783;SDS011;57054;51.978;4.498;2023-11-21T09:29:25;10.68;;;5.05;;
69783;SDS011;57054;51.978;4.498;2023-11-21T09:31:51;7.30;;;4.85;;
69783;SDS011;57054;51.978;4.498;2023-11-21T09:34:17;12.73;;;5.22;;
69783;SDS011;57054;51.978;4.498;2023-11-21T09:36:45;10.80;;;5.78;;
69783;SDS011;57054;51.978;4.498;2023-11-21T09:39:11;9.00;;;5.00;;
69783;SDS011;57054;51.978;4.498;2023-11-21T09:44:40;10.20;;;6.50;;
69783;SDS011;57054;51.978;4.498;2023-11-21T09:47:14;15.13;;;7.93;;
69783;SDS011;57054;51.978;4.498;2023-11-21T09:49:41;9.93;;;6.63;;
69783;SDS011;57054;51.978;4.498;2023-11-21T09:52:12;11.75;;;7.07;;
69783;SDS011;57054;51.978;4.498;2023-11-21T09:54:50;8.82;;;7.03;;
69783;SDS011;57054;51.978;4.498;2023-11-21T09:57:19;17.17;;;7.20;;
69783;SDS011;57054;51.978;4.498;2023-11-21T09:59:46;15.20;;;7.45;;
69783;SDS011;57054;51.978;4.498;2023-11-21T10:02:15;11.95;;;6.55;;
69783;SDS011;57054;51.978;4.498;2023-11-21T10:04:43;12.13;;;6.97;;
69783;SDS011;57054;51.978;4.498;2023-11-21T10:07:10;8.55;;;6.80;;
69783;SDS011;57054;51.978;4.498;2023-11-21T10:09:37;13.95;;;8.18;;
69783;SDS011;57054;51.978;4.498;2023-11-21T10:12:03;8.43;;;7.22;;
69783;SDS011;57054;51.978;4.498;2023-11-21T10:14:31;13.95;;;7.90;;
69783;SDS011;57054;51.978;4.498;2023-11-21T10:16:58;11.18;;;7.75;;
69783;SDS011;57054;51.978;4.498;2023-11-21T10:19:23;7.97;;;6.38;;
69783;SDS011;57054;51.978;4.498;2023-11-21T10:21:49;13.50;;;7.07;;
69783;SDS011;57054;51.978;4.498;2023-11-21T10:24:16;11.43;;;7.28;;
69783;SDS011;57054;51.978;4.498;2023-11-21T10:26:43;7.03;;;6.32;;
69783;SDS011;57054;51.978;4.498;2023-11-21T10:29:10;8.35;;;6.50;;
69783;SDS011;57054;51.978;4.498;2023-11-21T10:31:41;12.25;;;7.25;;
69783;SDS011;57054;51.978;4.498;2023-11-21T10:34:17;9.48;;;8.32;;
69783;SDS011;57054;51.978;4.498;2023-11-21T10:36:44;14.48;;;9.00;;
69783;SDS011;57054;51.978;4.498;2023-11-21T10:39:09;12.95;;;8.15;;
69783;SDS011;57054;51.978;4.498;2023-11-21T10:41:43;7.40;;;6.25;;
69783;SDS011;57054;51.978;4.498;2023-11-21T10:44:10;6.87;;;5.53;;
69783;SDS011;57054;51.978;4.498;2023-11-21T10:46:36;8.07;;;5.63;;
69783;SDS011;57054;51.978;4.498;2023-11-21T10:49:01;10.32;;;5.05;;
69783;SDS011;57054;51.978;4.498;2023-11-21T10:51:27;13.77;;;5.90;;
69783;SDS011;57054;51.978;4.498;2023-11-21T10:53:53;12.00;;;6.85;;
69783;SDS011;57054;51.978;4.498;2023-11-21T10:56:19;10.43;;;7.03;;
69783;SDS011;57054;51.978;4.498;2023-11-21T10:58:48;11.50;;;6.90;;
69783;SDS011;57054;51.978;4.498;2023-11-21T11:01:14;12.13;;;8.25;;
69783;SDS011;57054;51.978;4.498;2023-11-21T11:06:09;12.43;;;6.95;;
69783;SDS011;57054;51.978;4.498;2023-11-21T11:08:37;12.23;;;7.30;;
69783;SDS011;57054;51.978;4.498;2023-11-21T11:11:04;13.80;;;7.40;;
69783;SDS011;57054;51.978;4.498;2023-11-21T11:13:32;15.90;;;8.50;;
69783;SDS011;57054;51.978;4.498;2023-11-21T11:15:58;13.73;;;8.73;;
69783;SDS011;57054;51.978;4.498;2023-11-21T11:18:29;11.10;;;7.93;;
69783;SDS011;57054;51.978;4.498;2023-11-21T11:20:55;11.40;;;7.90;;
69783;SDS011;57054;51.978;4.498;2023-11-21T11:32:00;13.65;;;8.27;;
69783;SDS011;57054;51.978;4.498;2023-11-21T11:35:04;15.32;;;8.95;;
69783;SDS011;57054;51.978;4.498;2023-11-21T11:37:35;18.42;;;9.27;;
69783;SDS011;57054;51.978;4.498;2023-11-21T11:40:05;13.70;;;8.63;;
69783;SDS011;57054;51.978;4.498;2023-11-21T11:42:32;15.35;;;8.40;;
69783;SDS011;57054;51.978;4.498;2023-11-21T11:44:57;17.33;;;9.05;;
69783;SDS011;57054;51.978;4.498;2023-11-21T11:47:26;15.65;;;8.88;;
69783;SDS011;57054;51.978;4.498;2023-11-21T11:49:58;15.75;;;8.88;;
69783;SDS011;57054;51.978;4.498;2023-11-21T11:55:02;15.88;;;8.25;;
69783;SDS011;57054;51.978;4.498;2023-11-21T11:57:32;13.30;;;7.73;;
69783;SDS011;57054;51.978;4.498;2023-11-21T12:02:41;12.32;;;7.63;;
69783;SDS011;57054;51.978;4.498;2023-11-21T12:05:08;11.88;;;8.20;;
69783;SDS011;57054;51.978;4.498;2023-11-21T12:10:23;10.68;;;8.40;;
69783;SDS011;57054;51.978;4.498;2023-11-21T12:13:00;14.13;;;9.07;;
69783;SDS011;57054;51.978;4.498;2023-11-21T12:15:27;13.68;;;9.35;;
69783;SDS011;57054;51.978;4.498;2023-11-21T12:17:56;14.40;;;9.65;;
69783;SDS011;57054;51.978;4.498;2023-11-21T12:20:24;15.70;;;10.73;;
69783;SDS011;57054;51.978;4.498;2023-11-21T12:22:50;10.77;;;8.38;;
69783;SDS011;57054;51.978;4.498;2023-11-21T12:25:18;14.57;;;8.32;;
69783;SDS011;57054;51.978;4.498;2023-11-21T12:27:48;8.82;;;7.25;;
69783;SDS011;57054;51.978;4.498;2023-11-21T12:30:15;11.15;;;6.97;;
69783;SDS011;57054;51.978;4.498;2023-11-21T12:32:42;6.40;;;5.80;;
69783;SDS011;57054;51.978;4.498;2023-11-21T12:35:09;6.95;;;6.25;;
69783;SDS011;57054;51.978;4.498;2023-11-21T12:37:39;7.65;;;5.85;;
69783;SDS011;57054;51.978;4.498;2023-11-21T12:40:08;9.60;;;6.45;;
69783;SDS011;57054;51.978;4.498;2023-11-21T12:42:37;7.20;;;6.18;;
69783;SDS011;57054;51.978;4.498;2023-11-21T12:47:42;6.80;;;6.10;;
69783;SDS011;57054;51.978;4.498;2023-11-21T12:50:08;6.28;;;5.57;;
69783;SDS011;57054;51.978;4.498;2023-11-21T12:52:40;9.80;;;5.63;;
69783;SDS011;57054;51.978;4.498;2023-11-21T12:55:19;7.60;;;5.22;;
69783;SDS011;57054;51.978;4.498;2023-11-21T12:57:53;11.98;;;6.00;;
69783;SDS011;57054;51.978;4.498;2023-11-21T13:00:22;9.15;;;5.85;;
69783;SDS011;57054;51.978;4.498;2023-11-21T13:02:57;8.38;;;6.15;;
69783;SDS011;57054;51.978;4.498;2023-11-21T13:05:33;9.35;;;6.25;;
69783;SDS011;57054;51.978;4.498;2023-11-21T13:08:03;9.68;;;6.88;;
69783;SDS011;57054;51.978;4.498;2023-11-21T13:15:30;15.27;;;7.05;;
69783;SDS011;57054;51.978;4.498;2023-11-21T13:17:57;10.05;;;6.85;;
69783;SDS011;57054;51.978;4.498;2023-11-21T13:20:24;9.68;;;7.13;;
69783;SDS011;57054;51.978;4.498;2023-11-21T13:25:22;10.93;;;7.65;;
69783;SDS011;57054;51.978;4.498;2023-11-21T13:27:56;13.57;;;7.60;;
69783;SDS011;57054;51.978;4.498;2023-11-21T13:30:25;8.70;;;7.30;;
69783;SDS011;57054;51.978;4.498;2023-11-21T13:32:55;11.30;;;7.38;;
69783;SDS011;57054;51.978;4.498;2023-11-21T13:35:26;8.98;;;6.78;;
69783;SDS011;57054;51.978;4.498;2023-11-21T13:38:12;11.45;;;6.57;;
69783;SDS011;57054;51.978;4.498;2023-11-21T13:40:40;11.25;;;6.93;;
69783;SDS011;57054;51.978;4.498;2023-11-21T13:43:14;7.78;;;6.88;;
69783;SDS011;57054;51.978;4.498;2023-11-21T13:45:42;13.82;;;7.47;;
69783;SDS011;57054;51.978;4.498;2023-11-21T13:48:08;6.60;;;5.82;;
69783;SDS011;57054;51.978;4.498;2023-11-21T13:50:36;6.15;;;5.60;;
69783;SDS011;57054;51.978;4.498;2023-11-21T13:53:09;7.20;;;5.45;;
69783;SDS011;57054;51.978;4.498;2023-11-21T13:55:47;8.32;;;5.70;;
69783;SDS011;57054;51.978;4.498;2023-11-21T13:58:14;7.72;;;6.10;;
69783;SDS011;57054;51.978;4.498;2023-11-21T14:00:48;10.15;;;6.13;;
69783;SDS011;57054;51.978;4.498;2023-11-21T14:03:21;8.73;;;6.38;;
69783;SDS011;57054;51.978;4.498;2023-11-21T14:05:49;8.68;;;6.18;;
69783;SDS011;57054;51.978;4.498;2023-11-21T14:08:20;15.60;;;6.30;;
69783;SDS011;57054;51.978;4.498;2023-11-21T14:10:49;11.90;;;5.90;;
69783;SDS011;57054;51.978;4.498;2023-11-21T14:13:18;12.10;;;6.45;;
69783;SDS011;57054;51.978;4.498;2023-11-21T14:15:44;7.82;;;6.75;;
69783;SDS011;57054;51.978;4.498;2023-11-21T14:18:11;8.68;;;6.80;;
69783;SDS011;57054;51.978;4.498;2023-11-21T14:20:39;13.47;;;7.50;;
69783;SDS011;57054;51.978;4.498;2023-11-21T14:23:06;9.88;;;7.30;;
69783;SDS011;57054;51.978;4.498;2023-11-21T14:25:34;18.60;;;7.40;;
69783;SDS011;57054;51.978;4.498;2023-11-21T14:28:01;14.45;;;6.97;;
69783;SDS011;57054;51.978;4.498;2023-11-21T14:30:28;12.20;;;7.25;;
69783;SDS011;57054;51.978;4.498;2023-11-21T14:32:59;11.05;;;7.07;;
69783;SDS011;57054;51.978;4.498;2023-11-21T14:35:24;14.32;;;7.55;;
69783;SDS011;57054;51.978;4.498;2023-11-21T14:37:51;11.45;;;7.13;;
69783;SDS011;57054;51.978;4.498;2023-11-21T14:40:17;14.65;;;8.75;;
69783;SDS011;57054;51.978;4.498;2023-11-21T14:42:46;16.52;;;8.98;;
69783;SDS011;57054;51.978;4.498;2023-11-21T14:45:12;15.45;;;10.25;;
69783;SDS011;57054;51.978;4.498;2023-11-21T14:47:41;15.82;;;9.90;;
69783;SDS011;57054;51.978;4.498;2023-11-21T14:50:11;16.15;;;10.32;;
69783;SDS011;57054;51.978;4.498;2023-11-21T14:53:10;20.67;;;10.70;;
69783;SDS011;57054;51.978;4.498;2023-11-21T14:55:38;25.90;;;10.95;;
69783;SDS011;57054;51.978;4.498;2023-11-21T14:58:18;19.10;;;12.30;;
69783;SDS011;57054;51.978;4.498;2023-11-21T15:00:56;16.55;;;10.90;;
69783;SDS011;57054;51.978;4.498;2023-11-21T15:03:23;18.80;;;12.15;;
69783;SDS011;57054;51.978;4.498;2023-11-21T15:05:58;16.70;;;10.40;;
69783;SDS011;57054;51.978;4.498;2023-11-21T15:08:35;22.88;;;10.68;;
69783;SDS011;57054;51.978;4.498;2023-11-21T15:11:01;21.65;;;11.18;;
69783;SDS011;57054;51.978;4.498;2023-11-21T15:13:32;16.05;;;10.73;;
69783;SDS011;57054;51.978;4.498;2023-11-21T15:15:58;18.60;;;11.57;;
69783;SDS011;57054;51.978;4.498;2023-11-21T15:18:32;14.65;;;9.35;;